createdAt,value
2023-03-19T00:07:56.184Z,50.20
2023-03-19T00:18:21.885Z,43.90
2023-03-19T00:28:47.470Z,31.00
2023-03-19T00:39:13.820Z,31.80
2023-03-19T00:49:39.904Z,26.70
2023-03-19T01:00:06.483Z,35.50
2023-03-19T01:10:34.257Z,37.00
2023-03-19T01:21:00.601Z,25.70
2023-03-19T01:31:26.534Z,22.20
2023-03-19T01:41:52.750Z,20.30
2023-03-19T01:52:18.587Z,21.30
2023-03-19T02:02:45.841Z,21.60
2023-03-19T02:13:11.738Z,20.70
2023-03-19T02:23:45.114Z,15.00
2023-03-19T02:34:37.071Z,16.80
2023-03-19T02:45:02.390Z,17.10
2023-03-19T02:55:28.097Z,18.00
2023-03-19T03:05:53.595Z,16.50
2023-03-19T03:16:19.469Z,19.00
2023-03-19T03:26:45.328Z,17.10
2023-03-19T03:37:11.323Z,16.20
2023-03-19T03:47:37.372Z,16.00
2023-03-19T03:58:04.203Z,13.60
2023-03-19T04:08:30.327Z,17.80
2023-03-19T04:18:56.245Z,16.30
2023-03-19T04:29:23.168Z,14.40
2023-03-19T04:39:48.849Z,15.70
2023-03-19T04:50:14.804Z,13.90
2023-03-19T05:00:40.476Z,13.10
2023-03-19T05:11:06.425Z,14.00
2023-03-19T05:21:32.132Z,13.70
2023-03-19T05:31:57.826Z,12.20
2023-03-19T05:42:23.607Z,11.60
2023-03-19T05:52:49.263Z,14.20
2023-03-19T06:03:15.218Z,13.20
2023-03-19T06:13:41.522Z,18.80
2023-03-19T06:24:07.974Z,15.80
2023-03-19T06:34:33.442Z,16.60
2023-03-19T06:44:59.354Z,17.10
2023-03-19T06:55:24.824Z,20.20
2023-03-19T07:05:53.004Z,27.90
2023-03-19T07:16:18.974Z,26.10
2023-03-19T07:26:45.067Z,19.30
2023-03-19T07:37:11.877Z,16.40
2023-03-19T07:47:37.318Z,15.30
2023-03-19T07:58:02.813Z,11.90
2023-03-19T08:08:28.365Z,13.70
2023-03-19T08:18:54.082Z,10.50
2023-03-19T08:29:23.089Z,6.00
2023-03-19T08:39:51.195Z,5.50
2023-03-19T08:50:17.420Z,5.60
2023-03-19T09:00:43.538Z,6.00
2023-03-19T09:11:10.674Z,6.20
2023-03-19T09:21:37.127Z,8.00
2023-03-19T09:32:03.406Z,6.10
2023-03-19T09:42:42.206Z,5.80
2023-03-19T09:53:16.383Z,5.80
2023-03-19T10:03:59.903Z,4.80
2023-03-19T10:14:46.920Z,4.50
2023-03-19T10:25:21.060Z,5.00
2023-03-19T10:35:50.486Z,4.20
2023-03-19T10:46:17.629Z,6.10
2023-03-19T10:56:48.740Z,6.70
2023-03-19T11:07:19.536Z,9.60
2023-03-19T11:17:50.021Z,5.40
2023-03-19T11:28:20.901Z,4.70
2023-03-19T11:39:00.802Z,4.80
2023-03-19T11:49:43.719Z,5.50
2023-03-19T12:00:23.581Z,4.90
2023-03-19T12:11:11.357Z,4.70
2023-03-19T12:21:51.077Z,5.50
2023-03-19T12:32:37.983Z,5.00
2023-03-19T12:43:08.262Z,5.80
2023-03-19T12:53:45.017Z,6.10
2023-03-19T13:04:15.665Z,5.40
2023-03-19T13:14:51.449Z,7.50
2023-03-19T13:25:22.447Z,39.30
2023-03-19T13:35:50.867Z,9.80
2023-03-19T13:46:46.463Z,6.20
2023-03-19T13:57:36.652Z,4.90
2023-03-19T14:08:02.467Z,7.50
2023-03-19T14:18:30.673Z,6.10
2023-03-19T14:29:03.670Z,5.40
2023-03-19T14:39:32.866Z,5.60
2023-03-19T14:50:20.571Z,6.10
2023-03-19T15:00:50.349Z,5.30
2023-03-19T15:11:34.175Z,5.50
2023-03-19T15:22:12.973Z,6.20
2023-03-19T15:33:02.839Z,5.40
2023-03-19T15:43:28.864Z,5.00
2023-03-19T15:53:55.458Z,4.70
2023-03-19T16:04:26.983Z,5.40
2023-03-19T16:14:52.425Z,5.00
2023-03-19T16:25:20.760Z,4.40
2023-03-19T16:35:46.756Z,4.60
2023-03-19T16:46:16.694Z,4.80
2023-03-19T16:56:42.625Z,4.30
2023-03-19T17:07:09.155Z,5.90
2023-03-19T17:17:34.546Z,4.80
2023-03-19T17:28:00.614Z,5.30
2023-03-19T17:38:36.242Z,4.60
2023-03-19T17:49:02.113Z,4.50
2023-03-19T17:59:28.516Z,6.80
2023-03-19T18:09:54.355Z,7.60
2023-03-19T18:20:23.418Z,5.60
2023-03-19T18:30:49.308Z,8.50
2023-03-19T18:41:20.189Z,10.00
2023-03-19T18:52:00.996Z,14.30
2023-03-19T19:02:35.092Z,20.50
2023-03-19T19:13:02.219Z,13.80
2023-03-19T19:23:30.307Z,13.50
2023-03-19T19:33:56.464Z,13.80
2023-03-19T19:44:23.602Z,15.60
2023-03-19T19:54:51.927Z,18.60
2023-03-19T20:15:47.800Z,20.00
2023-03-19T20:26:16.708Z,24.00
2023-03-19T20:36:42.171Z,25.00
2023-03-19T20:47:17.699Z,26.20
2023-03-19T20:57:44.180Z,28.70
2023-03-19T21:08:19.640Z,33.20
2023-03-19T21:18:45.500Z,40.30
2023-03-19T21:29:16.771Z,44.20
2023-03-19T21:39:42.966Z,37.60
2023-03-19T21:50:15.766Z,35.90
2023-03-19T22:00:41.741Z,42.30
2023-03-19T22:11:15.195Z,40.80
2023-03-19T22:21:41.381Z,45.10
2023-03-19T22:32:16.027Z,41.50
2023-03-19T22:42:42.561Z,42.40
2023-03-19T22:53:20.874Z,38.40
2023-03-19T23:03:46.912Z,40.50
2023-03-19T23:14:27.894Z,44.30
2023-03-19T23:24:55.518Z,38.50
2023-03-19T23:35:24.036Z,46.00
2023-03-19T23:56:21.445Z,41.10
